sensor_id;sensor_type;location;lat;lon;timestamp;P1;durP1;ratioP1;P2;durP2;ratioP2
35418;SDS011;21525;41.240;16.500;2023-06-14T00:01:45;5.63;;;3.95;;
35418;SDS011;21525;41.240;16.500;2023-06-14T00:04:11;6.07;;;4.10;;
35418;SDS011;21525;41.240;16.500;2023-06-14T00:06:38;8.50;;;4.47;;
35418;SDS011;21525;41.240;16.500;2023-06-14T00:09:04;7.40;;;3.70;;
35418;SDS011;21525;41.240;16.500;2023-06-14T00:11:30;9.70;;;4.05;;
35418;SDS011;21525;41.240;16.500;2023-06-14T00:13:57;6.65;;;4.07;;
35418;SDS011;21525;41.240;16.500;2023-06-14T00:16:23;8.43;;;4.28;;
35418;SDS011;21525;41.240;16.500;2023-06-14T00:18:49;5.68;;;4.00;;
35418;SDS011;21525;41.240;16.500;2023-06-14T00:21:17;8.05;;;4.85;;
35418;SDS011;21525;41.240;16.500;2023-06-14T00:23:43;7.88;;;4.40;;
35418;SDS011;21525;41.240;16.500;2023-06-14T00:26:09;6.80;;;4.10;;
35418;SDS011;21525;41.240;16.500;2023-06-14T00:28:35;6.35;;;3.80;;
35418;SDS011;21525;41.240;16.500;2023-06-14T00:31:01;8.98;;;4.45;;
35418;SDS011;21525;41.240;16.500;2023-06-14T00:33:27;8.98;;;3.88;;
35418;SDS011;21525;41.240;16.500;2023-06-14T00:35:53;5.10;;;3.63;;
35418;SDS011;21525;41.240;16.500;2023-06-14T00:38:21;5.10;;;3.55;;
35418;SDS011;21525;41.240;16.500;2023-06-14T00:40:47;6.57;;;3.78;;
35418;SDS011;21525;41.240;16.500;2023-06-14T00:43:13;6.05;;;3.45;;
35418;SDS011;21525;41.240;16.500;2023-06-14T00:45:39;9.35;;;3.85;;
35418;SDS011;21525;41.240;16.500;2023-06-14T00:48:05;7.03;;;4.32;;
35418;SDS011;21525;41.240;16.500;2023-06-14T00:50:32;7.80;;;4.28;;
35418;SDS011;21525;41.240;16.500;2023-06-14T00:52:59;12.65;;;5.28;;
35418;SDS011;21525;41.240;16.500;2023-06-14T00:55:26;12.43;;;4.30;;
35418;SDS011;21525;41.240;16.500;2023-06-14T00:57:55;9.10;;;4.07;;
35418;SDS011;21525;41.240;16.500;2023-06-14T01:00:21;8.82;;;3.97;;
35418;SDS011;21525;41.240;16.500;2023-06-14T01:02:47;6.45;;;4.10;;
35418;SDS011;21525;41.240;16.500;2023-06-14T01:05:14;7.40;;;4.25;;
35418;SDS011;21525;41.240;16.500;2023-06-14T01:12:51;7.65;;;4.82;;
35418;SDS011;21525;41.240;16.500;2023-06-14T01:15:24;8.20;;;4.20;;
35418;SDS011;21525;41.240;16.500;2023-06-14T01:17:50;6.63;;;4.10;;
35418;SDS011;21525;41.240;16.500;2023-06-14T01:20:19;9.05;;;4.30;;
35418;SDS011;21525;41.240;16.500;2023-06-14T01:22:55;10.82;;;5.10;;
35418;SDS011;21525;41.240;16.500;2023-06-14T01:25:21;5.80;;;4.35;;
35418;SDS011;21525;41.240;16.500;2023-06-14T01:27:55;5.53;;;4.55;;
35418;SDS011;21525;41.240;16.500;2023-06-14T01:30:25;9.43;;;5.30;;
35418;SDS011;21525;41.240;16.500;2023-06-14T01:32:52;7.05;;;4.53;;
35418;SDS011;21525;41.240;16.500;2023-06-14T01:35:20;8.20;;;4.27;;
35418;SDS011;21525;41.240;16.500;2023-06-14T01:37:49;6.10;;;4.30;;
35418;SDS011;21525;41.240;16.500;2023-06-14T01:40:17;9.32;;;4.35;;
35418;SDS011;21525;41.240;16.500;2023-06-14T01:42:44;12.23;;;4.97;;
35418;SDS011;21525;41.240;16.500;2023-06-14T01:45:13;12.75;;;4.13;;
35418;SDS011;21525;41.240;16.500;2023-06-14T01:47:40;9.85;;;4.47;;
35418;SDS011;21525;41.240;16.500;2023-06-14T01:50:06;7.85;;;5.13;;
35418;SDS011;21525;41.240;16.500;2023-06-14T01:52:32;7.25;;;4.53;;
35418;SDS011;21525;41.240;16.500;2023-06-14T01:54:58;8.30;;;4.75;;
35418;SDS011;21525;41.240;16.500;2023-06-14T01:57:24;9.05;;;4.45;;
35418;SDS011;21525;41.240;16.500;2023-06-14T01:59:52;9.13;;;4.85;;
35418;SDS011;21525;41.240;16.500;2023-06-14T02:02:18;8.23;;;4.65;;
35418;SDS011;21525;41.240;16.500;2023-06-14T02:04:44;9.27;;;5.18;;
35418;SDS011;21525;41.240;16.500;2023-06-14T02:07:13;9.70;;;5.00;;
35418;SDS011;21525;41.240;16.500;2023-06-14T02:09:41;9.90;;;4.80;;
35418;SDS011;21525;41.240;16.500;2023-06-14T02:12:07;9.70;;;4.50;;
35418;SDS011;21525;41.240;16.500;2023-06-14T02:14:33;10.70;;;5.30;;
35418;SDS011;21525;41.240;16.500;2023-06-14T02:16:59;6.97;;;4.82;;
35418;SDS011;21525;41.240;16.500;2023-06-14T02:19:26;7.72;;;4.80;;
35418;SDS011;21525;41.240;16.500;2023-06-14T02:21:52;8.73;;;4.72;;
35418;SDS011;21525;41.240;16.500;2023-06-14T02:24:18;7.28;;;4.85;;
35418;SDS011;21525;41.240;16.500;2023-06-14T02:26:44;9.20;;;4.85;;
35418;SDS011;21525;41.240;16.500;2023-06-14T02:29:13;10.27;;;5.65;;
35418;SDS011;21525;41.240;16.500;2023-06-14T02:31:40;8.50;;;5.68;;
35418;SDS011;21525;41.240;16.500;2023-06-14T02:34:06;10.30;;;5.00;;
35418;SDS011;21525;41.240;16.500;2023-06-14T02:36:34;7.15;;;5.05;;
35418;SDS011;21525;41.240;16.500;2023-06-14T02:39:06;7.78;;;5.43;;
35418;SDS011;21525;41.240;16.500;2023-06-14T02:41:31;10.15;;;5.80;;
35418;SDS011;21525;41.240;16.500;2023-06-14T02:43:57;9.75;;;4.93;;
35418;SDS011;21525;41.240;16.500;2023-06-14T02:46:24;15.63;;;5.15;;
35418;SDS011;21525;41.240;16.500;2023-06-14T02:48:50;8.57;;;5.22;;
35418;SDS011;21525;41.240;16.500;2023-06-14T02:51:15;11.48;;;6.03;;
35418;SDS011;21525;41.240;16.500;2023-06-14T02:53:41;8.77;;;5.28;;
35418;SDS011;21525;41.240;16.500;2023-06-14T02:56:07;10.82;;;5.05;;
35418;SDS011;21525;41.240;16.500;2023-06-14T02:58:33;10.25;;;5.13;;
35418;SDS011;21525;41.240;16.500;2023-06-14T03:00:59;12.27;;;5.82;;
35418;SDS011;21525;41.240;16.500;2023-06-14T03:03:29;8.18;;;5.30;;
35418;SDS011;21525;41.240;16.500;2023-06-14T03:05:56;10.23;;;5.50;;
35418;SDS011;21525;41.240;16.500;2023-06-14T03:08:26;9.43;;;5.82;;
35418;SDS011;21525;41.240;16.500;2023-06-14T03:10:56;9.27;;;5.90;;
35418;SDS011;21525;41.240;16.500;2023-06-14T03:13:23;8.38;;;5.72;;
35418;SDS011;21525;41.240;16.500;2023-06-14T03:15:51;8.25;;;5.40;;
35418;SDS011;21525;41.240;16.500;2023-06-14T03:18:18;11.73;;;6.50;;
35418;SDS011;21525;41.240;16.500;2023-06-14T03:20:45;9.88;;;5.70;;
35418;SDS011;21525;41.240;16.500;2023-06-14T03:23:12;9.75;;;5.82;;
35418;SDS011;21525;41.240;16.500;2023-06-14T03:25:38;14.20;;;6.10;;
35418;SDS011;21525;41.240;16.500;2023-06-14T03:28:07;8.85;;;6.30;;
35418;SDS011;21525;41.240;16.500;2023-06-14T03:30:34;15.20;;;6.65;;
35418;SDS011;21525;41.240;16.500;2023-06-14T03:33:00;11.57;;;6.35;;
35418;SDS011;21525;41.240;16.500;2023-06-14T03:35:28;10.73;;;6.30;;
35418;SDS011;21525;41.240;16.500;2023-06-14T03:37:54;11.10;;;6.72;;
35418;SDS011;21525;41.240;16.500;2023-06-14T03:40:20;13.63;;;6.82;;
35418;SDS011;21525;41.240;16.500;2023-06-14T03:42:50;11.38;;;7.03;;
35418;SDS011;21525;41.240;16.500;2023-06-14T03:45:15;9.40;;;6.03;;
35418;SDS011;21525;41.240;16.500;2023-06-14T03:47:41;10.52;;;6.70;;
35418;SDS011;21525;41.240;16.500;2023-06-14T03:50:07;9.80;;;5.93;;
35418;SDS011;21525;41.240;16.500;2023-06-14T03:52:34;10.73;;;6.00;;
35418;SDS011;21525;41.240;16.500;2023-06-14T03:55:00;9.98;;;6.20;;
35418;SDS011;21525;41.240;16.500;2023-06-14T03:57:27;14.85;;;6.30;;
35418;SDS011;21525;41.240;16.500;2023-06-14T03:59:54;9.48;;;5.72;;
35418;SDS011;21525;41.240;16.500;2023-06-14T04:02:21;10.30;;;5.55;;
35418;SDS011;21525;41.240;16.500;2023-06-14T04:04:48;11.57;;;5.68;;
35418;SDS011;21525;41.240;16.500;2023-06-14T04:07:14;9.38;;;6.00;;
35418;SDS011;21525;41.240;16.500;2023-06-14T04:09:44;13.90;;;6.40;;
35418;SDS011;21525;41.240;16.500;2023-06-14T04:12:10;12.75;;;6.38;;
35418;SDS011;21525;41.240;16.500;2023-06-14T04:14:37;10.25;;;6.40;;
35418;SDS011;21525;41.240;16.500;2023-06-14T04:17:03;15.18;;;6.75;;
35418;SDS011;21525;41.240;16.500;2023-06-14T04:19:29;10.77;;;6.43;;
35418;SDS011;21525;41.240;16.500;2023-06-14T04:21:55;10.90;;;5.82;;
35418;SDS011;21525;41.240;16.500;2023-06-14T04:24:21;9.02;;;5.90;;
35418;SDS011;21525;41.240;16.500;2023-06-14T04:26:48;8.50;;;6.00;;
35418;SDS011;21525;41.240;16.500;2023-06-14T04:29:16;10.93;;;6.27;;
35418;SDS011;21525;41.240;16.500;2023-06-14T04:31:49;12.73;;;5.93;;
35418;SDS011;21525;41.240;16.500;2023-06-14T04:34:17;12.90;;;5.90;;
35418;SDS011;21525;41.240;16.500;2023-06-14T04:36:48;9.45;;;5.65;;
35418;SDS011;21525;41.240;16.500;2023-06-14T04:39:20;10.80;;;5.72;;
35418;SDS011;21525;41.240;16.500;2023-06-14T04:41:47;13.70;;;6.88;;
35418;SDS011;21525;41.240;16.500;2023-06-14T04:44:13;9.52;;;6.55;;
35418;SDS011;21525;41.240;16.500;2023-06-14T04:46:43;9.63;;;6.20;;
35418;SDS011;21525;41.240;16.500;2023-06-14T04:49:21;15.50;;;6.78;;
35418;SDS011;21525;41.240;16.500;2023-06-14T04:51:48;10.60;;;6.20;;
35418;SDS011;21525;41.240;16.500;2023-06-14T04:54:23;10.68;;;6.85;;
35418;SDS011;21525;41.240;16.500;2023-06-14T04:56:51;11.80;;;6.95;;
35418;SDS011;21525;41.240;16.500;2023-06-14T04:59:21;11.18;;;6.13;;
35418;SDS011;21525;41.240;16.500;2023-06-14T05:01:50;10.80;;;6.53;;
35418;SDS011;21525;41.240;16.500;2023-06-14T05:04:17;10.63;;;7.68;;
35418;SDS011;21525;41.240;16.500;2023-06-14T05:06:44;9.15;;;6.22;;
35418;SDS011;21525;41.240;16.500;2023-06-14T05:09:13;10.25;;;6.35;;
35418;SDS011;21525;41.240;16.500;2023-06-14T05:11:40;11.30;;;7.10;;
35418;SDS011;21525;41.240;16.500;2023-06-14T05:14:07;14.20;;;7.45;;
35418;SDS011;21525;41.240;16.500;2023-06-14T05:16:33;15.15;;;7.47;;
35418;SDS011;21525;41.240;16.500;2023-06-14T05:18:59;14.65;;;7.13;;
35418;SDS011;21525;41.240;16.500;2023-06-14T05:21:26;13.70;;;7.32;;
35418;SDS011;21525;41.240;16.500;2023-06-14T05:23:52;13.02;;;6.43;;
35418;SDS011;21525;41.240;16.500;2023-06-14T05:26:19;9.27;;;6.10;;
35418;SDS011;21525;41.240;16.500;2023-06-14T05:28:45;13.10;;;6.53;;
35418;SDS011;21525;41.240;16.500;2023-06-14T05:31:10;9.63;;;5.78;;
35418;SDS011;21525;41.240;16.500;2023-06-14T05:33:36;10.68;;;5.78;;
35418;SDS011;21525;41.240;16.500;2023-06-14T05:36:02;10.13;;;6.45;;
35418;SDS011;21525;41.240;16.500;2023-06-14T05:38:27;12.00;;;5.78;;
35418;SDS011;21525;41.240;16.500;2023-06-14T05:40:53;17.73;;;6.63;;
35418;SDS011;21525;41.240;16.500;2023-06-14T05:43:19;15.90;;;7.13;;
35418;SDS011;21525;41.240;16.500;2023-06-14T05:45:45;10.48;;;6.88;;
35418;SDS011;21525;41.240;16.500;2023-06-14T05:48:10;10.75;;;6.50;;
35418;SDS011;21525;41.240;16.500;2023-06-14T05:50:36;10.27;;;6.40;;
35418;SDS011;21525;41.240;16.500;2023-06-14T05:53:02;10.40;;;6.47;;
35418;SDS011;21525;41.240;16.500;2023-06-14T05:55:28;11.07;;;6.68;;
35418;SDS011;21525;41.240;16.500;2023-06-14T05:57:54;9.77;;;5.88;;
35418;SDS011;21525;41.240;16.500;2023-06-14T06:00:20;12.23;;;7.88;;
35418;SDS011;21525;41.240;16.500;2023-06-14T06:02:46;8.65;;;6.30;;
35418;SDS011;21525;41.240;16.500;2023-06-14T06:05:13;14.43;;;6.78;;
35418;SDS011;21525;41.240;16.500;2023-06-14T06:07:39;9.88;;;5.95;;
35418;SDS011;21525;41.240;16.500;2023-06-14T06:10:10;13.35;;;6.55;;
35418;SDS011;21525;41.240;16.500;2023-06-14T06:12:36;11.95;;;6.82;;
35418;SDS011;21525;41.240;16.500;2023-06-14T06:15:02;10.25;;;6.65;;
35418;SDS011;21525;41.240;16.500;2023-06-14T06:17:29;19.13;;;8.35;;
35418;SDS011;21525;41.240;16.500;2023-06-14T06:19:55;14.20;;;6.88;;
35418;SDS011;21525;41.240;16.500;2023-06-14T06:22:21;9.50;;;6.10;;
35418;SDS011;21525;41.240;16.500;2023-06-14T06:24:47;10.70;;;6.10;;
35418;SDS011;21525;41.240;16.500;2023-06-14T06:27:12;9.85;;;5.78;;
35418;SDS011;21525;41.240;16.500;2023-06-14T06:29:38;8.75;;;5.20;;
35418;SDS011;21525;41.240;16.500;2023-06-14T06:32:07;11.93;;;6.25;;
35418;SDS011;21525;41.240;16.500;2023-06-14T06:34:33;9.68;;;5.80;;
35418;SDS011;21525;41.240;16.500;2023-06-14T06:36:58;9.65;;;5.05;;
35418;SDS011;21525;41.240;16.500;2023-06-14T06:39:24;9.88;;;5.35;;
35418;SDS011;21525;41.240;16.500;2023-06-14T06:41:51;5.93;;;4.97;;
35418;SDS011;21525;41.240;16.500;2023-06-14T06:44:26;8.90;;;4.78;;
35418;SDS011;21525;41.240;16.500;2023-06-14T06:46:53;10.55;;;6.20;;
35418;SDS011;21525;41.240;16.500;2023-06-14T06:49:18;11.23;;;5.60;;
35418;SDS011;21525;41.240;16.500;2023-06-14T06:51:53;8.18;;;4.53;;
35418;SDS011;21525;41.240;16.500;2023-06-14T06:54:26;8.40;;;4.35;;
35418;SDS011;21525;41.240;16.500;2023-06-14T06:56:52;7.38;;;4.18;;
35418;SDS011;21525;41.240;16.500;2023-06-14T06:59:17;10.25;;;4.53;;
35418;SDS011;21525;41.240;16.500;2023-06-14T07:01:43;8.02;;;4.85;;
35418;SDS011;21525;41.240;16.500;2023-06-14T07:04:09;6.20;;;4.38;;
35418;SDS011;21525;41.240;16.500;2023-06-14T07:06:35;8.45;;;4.05;;
35418;SDS011;21525;41.240;16.500;2023-06-14T07:09:01;6.97;;;4.05;;
35418;SDS011;21525;41.240;16.500;2023-06-14T07:11:27;6.47;;;4.50;;
35418;SDS011;21525;41.240;16.500;2023-06-14T07:13:53;8.18;;;4.97;;
35418;SDS011;21525;41.240;16.500;2023-06-14T07:16:18;7.88;;;4.55;;
35418;SDS011;21525;41.240;16.500;2023-06-14T07:18:44;6.47;;;4.38;;
35418;SDS011;21525;41.240;16.500;2023-06-14T07:21:10;6.47;;;4.30;;
35418;SDS011;21525;41.240;16.500;2023-06-14T07:23:35;7.32;;;4.40;;
35418;SDS011;21525;41.240;16.500;2023-06-14T07:26:01;7.97;;;5.25;;
35418;SDS011;21525;41.240;16.500;2023-06-14T07:28:28;9.85;;;5.28;;
35418;SDS011;21525;41.240;16.500;2023-06-14T07:30:53;10.38;;;5.60;;
35418;SDS011;21525;41.240;16.500;2023-06-14T07:33:20;6.75;;;4.75;;
35418;SDS011;21525;41.240;16.500;2023-06-14T07:35:45;8.65;;;5.20;;
35418;SDS011;21525;41.240;16.500;2023-06-14T07:38:13;8.88;;;4.97;;
35418;SDS011;21525;41.240;16.500;2023-06-14T07:40:39;9.68;;;5.40;;
35418;SDS011;21525;41.240;16.500;2023-06-14T07:43:05;11.35;;;5.53;;
35418;SDS011;21525;41.240;16.500;2023-06-14T07:45:31;9.50;;;5.35;;
35418;SDS011;21525;41.240;16.500;2023-06-14T07:47:56;6.93;;;5.10;;
35418;SDS011;21525;41.240;16.500;2023-06-14T07:50:22;10.32;;;5.47;;
35418;SDS011;21525;41.240;16.500;2023-06-14T07:52:48;8.75;;;4.90;;
35418;SDS011;21525;41.240;16.500;2023-06-14T07:55:14;9.00;;;5.15;;
35418;SDS011;21525;41.240;16.500;2023-06-14T07:57:40;10.57;;;5.80;;
35418;SDS011;21525;41.240;16.500;2023-06-14T08:00:06;12.70;;;6.30;;
35418;SDS011;21525;41.240;16.500;2023-06-14T08:02:37;8.82;;;5.60;;
35418;SDS011;21525;41.240;16.500;2023-06-14T08:05:03;9.60;;;5.93;;
35418;SDS011;21525;41.240;16.500;2023-06-14T08:07:29;11.77;;;6.72;;
35418;SDS011;21525;41.240;16.500;2023-06-14T08:09:55;10.15;;;6.25;;
35418;SDS011;21525;41.240;16.500;2023-06-14T08:12:21;11.80;;;6.40;;
35418;SDS011;21525;41.240;16.500;2023-06-14T08:14:47;13.80;;;7.10;;
35418;SDS011;21525;41.240;16.500;2023-06-14T08:17:13;12.45;;;7.00;;
35418;SDS011;21525;41.240;16.500;2023-06-14T08:19:39;9.85;;;6.55;;
35418;SDS011;21525;41.240;16.500;2023-06-14T08:22:04;9.13;;;6.30;;
35418;SDS011;21525;41.240;16.500;2023-06-14T08:24:30;9.63;;;6.53;;
35418;SDS011;21525;41.240;16.500;2023-06-14T08:26:57;9.95;;;6.60;;
35418;SDS011;21525;41.240;16.500;2023-06-14T08:29:23;11.15;;;6.68;;
35418;SDS011;21525;41.240;16.500;2023-06-14T08:31:48;10.75;;;6.72;;
35418;SDS011;21525;41.240;16.500;2023-06-14T08:34:14;9.63;;;6.43;;
35418;SDS011;21525;41.240;16.500;2023-06-14T08:36:40;11.45;;;6.45;;
35418;SDS011;21525;41.240;16.500;2023-06-14T08:39:06;10.15;;;6.13;;
35418;SDS011;21525;41.240;16.500;2023-06-14T08:41:34;9.35;;;6.03;;
35418;SDS011;21525;41.240;16.500;2023-06-14T08:44:01;7.95;;;5.55;;
35418;SDS011;21525;41.240;16.500;2023-06-14T08:46:26;8.32;;;5.47;;
35418;SDS011;21525;41.240;16.500;2023-06-14T08:48:55;9.27;;;5.50;;
35418;SDS011;21525;41.240;16.500;2023-06-14T08:51:25;9.40;;;5.45;;
35418;SDS011;21525;41.240;16.500;2023-06-14T08:53:53;8.23;;;5.53;;
35418;SDS011;21525;41.240;16.500;2023-06-14T08:56:25;10.98;;;7.43;;
35418;SDS011;21525;41.240;16.500;2023-06-14T08:58:53;10.52;;;6.22;;
35418;SDS011;21525;41.240;16.500;2023-06-14T09:01:19;10.90;;;6.47;;
35418;SDS011;21525;41.240;16.500;2023-06-14T09:03:47;12.20;;;6.18;;
35418;SDS011;21525;41.240;16.500;2023-06-14T09:06:14;16.25;;;6.45;;
35418;SDS011;21525;41.240;16.500;2023-06-14T09:08:44;8.10;;;6.07;;
35418;SDS011;21525;41.240;16.500;2023-06-14T09:11:11;8.23;;;5.88;;
35418;SDS011;21525;41.240;16.500;2023-06-14T09:13:38;8.05;;;5.03;;
35418;SDS011;21525;41.240;16.500;2023-06-14T09:16:05;7.22;;;4.85;;
35418;SDS011;21525;41.240;16.500;2023-06-14T09:18:38;9.45;;;5.63;;
35418;SDS011;21525;41.240;16.500;2023-06-14T09:21:13;6.18;;;4.53;;
35418;SDS011;21525;41.240;16.500;2023-06-14T09:23:41;8.63;;;4.70;;
35418;SDS011;21525;41.240;16.500;2023-06-14T09:26:09;9.32;;;5.35;;
35418;SDS011;21525;41.240;16.500;2023-06-14T09:28:46;8.30;;;4.90;;
35418;SDS011;21525;41.240;16.500;2023-06-14T09:31:15;11.55;;;5.45;;
35418;SDS011;21525;41.240;16.500;2023-06-14T09:36:31;8.63;;;5.50;;
35418;SDS011;21525;41.240;16.500;2023-06-14T09:38:58;7.40;;;4.97;;
35418;SDS011;21525;41.240;16.500;2023-06-14T09:44:02;8.50;;;5.32;;
35418;SDS011;21525;41.240;16.500;2023-06-14T09:46:30;9.40;;;5.65;;
35418;SDS011;21525;41.240;16.500;2023-06-14T09:48:56;11.75;;;5.63;;
35418;SDS011;21525;41.240;16.500;2023-06-14T09:51:23;9.70;;;5.60;;
35418;SDS011;21525;41.240;16.500;2023-06-14T09:53:49;9.98;;;6.13;;
35418;SDS011;21525;41.240;16.500;2023-06-14T09:56:28;8.70;;;6.03;;
35418;SDS011;21525;41.240;16.500;2023-06-14T09:58:58;8.73;;;5.75;;
35418;SDS011;21525;41.240;16.500;2023-06-14T10:01:25;9.88;;;6.00;;
35418;SDS011;21525;41.240;16.500;2023-06-14T10:03:55;12.07;;;6.25;;
35418;SDS011;21525;41.240;16.500;2023-06-14T10:06:34;10.70;;;5.80;;
35418;SDS011;21525;41.240;16.500;2023-06-14T10:09:03;10.43;;;5.95;;
35418;SDS011;21525;41.240;16.500;2023-06-14T10:11:32;9.52;;;5.80;;
35418;SDS011;21525;41.240;16.500;2023-06-14T10:14:01;6.85;;;4.75;;
35418;SDS011;21525;41.240;16.500;2023-06-14T10:19:17;10.30;;;5.18;;
35418;SDS011;21525;41.240;16.500;2023-06-14T10:24:26;7.00;;;5.45;;
35418;SDS011;21525;41.240;16.500;2023-06-14T10:27:16;7.70;;;5.13;;
35418;SDS011;21525;41.240;16.500;2023-06-14T10:32:18;7.30;;;5.20;;
35418;SDS011;21525;41.240;16.500;2023-06-14T10:34:45;11.82;;;5.45;;
35418;SDS011;21525;41.240;16.500;2023-06-14T10:37:12;9.63;;;5.38;;
35418;SDS011;21525;41.240;16.500;2023-06-14T10:42:09;8.73;;;5.72;;
35418;SDS011;21525;41.240;16.500;2023-06-14T10:47:13;9.27;;;6.13;;
35418;SDS011;21525;41.240;16.500;2023-06-14T10:49:57;9.50;;;6.38;;
35418;SDS011;21525;41.240;16.500;2023-06-14T10:52:38;9.45;;;6.30;;
35418;SDS011;21525;41.240;16.500;2023-06-14T10:55:11;11.55;;;6.70;;
35418;SDS011;21525;41.240;16.500;2023-06-14T11:00:22;10.05;;;6.40;;
35418;SDS011;21525;41.240;16.500;2023-06-14T11:05:54;15.02;;;7.60;;
35418;SDS011;21525;41.240;16.500;2023-06-14T11:11:07;11.27;;;7.50;;
35418;SDS011;21525;41.240;16.500;2023-06-14T11:13:34;16.98;;;8.00;;
35418;SDS011;21525;41.240;16.500;2023-06-14T11:16:09;10.93;;;6.18;;
35418;SDS011;21525;41.240;16.500;2023-06-14T11:18:44;13.88;;;6.55;;
35418;SDS011;21525;41.240;16.500;2023-06-14T11:21:10;16.13;;;6.05;;
35418;SDS011;21525;41.240;16.500;2023-06-14T11:23:36;13.55;;;6.75;;
35418;SDS011;21525;41.240;16.500;2023-06-14T11:26:03;11.02;;;6.05;;
35418;SDS011;21525;41.240;16.500;2023-06-14T11:28:41;20.83;;;7.03;;
35418;SDS011;21525;41.240;16.500;2023-06-14T11:31:07;10.00;;;6.20;;
35418;SDS011;21525;41.240;16.500;2023-06-14T11:33:33;8.93;;;6.03;;
35418;SDS011;21525;41.240;16.500;2023-06-14T11:36:03;8.45;;;5.57;;
35418;SDS011;21525;41.240;16.500;2023-06-14T11:38:34;9.93;;;5.22;;
35418;SDS011;21525;41.240;16.500;2023-06-14T11:41:01;8.45;;;5.45;;
35418;SDS011;21525;41.240;16.500;2023-06-14T11:43:27;10.40;;;5.03;;
35418;SDS011;21525;41.240;16.500;2023-06-14T11:45:54;8.73;;;5.22;;
35418;SDS011;21525;41.240;16.500;2023-06-14T11:48:20;8.10;;;5.10;;
35418;SDS011;21525;41.240;16.500;2023-06-14T11:50:49;9.13;;;4.82;;
35418;SDS011;21525;41.240;16.500;2023-06-14T11:53:15;6.65;;;4.10;;
35418;SDS011;21525;41.240;16.500;2023-06-14T11:55:42;10.02;;;5.53;;
35418;SDS011;21525;41.240;16.500;2023-06-14T11:58:10;12.35;;;4.85;;
35418;SDS011;21525;41.240;16.500;2023-06-14T12:00:36;8.75;;;4.97;;
35418;SDS011;21525;41.240;16.500;2023-06-14T12:03:03;7.60;;;4.97;;
35418;SDS011;21525;41.240;16.500;2023-06-14T12:05:29;12.75;;;4.95;;
35418;SDS011;21525;41.240;16.500;2023-06-14T12:08:02;8.18;;;4.95;;
35418;SDS011;21525;41.240;16.500;2023-06-14T12:10:29;10.32;;;4.50;;
35418;SDS011;21525;41.240;16.500;2023-06-14T12:12:58;11.30;;;4.28;;
35418;SDS011;21525;41.240;16.500;2023-06-14T12:15:27;7.65;;;4.63;;
35418;SDS011;21525;41.240;16.500;2023-06-14T12:17:54;7.82;;;4.80;;
35418;SDS011;21525;41.240;16.500;2023-06-14T12:20:20;7.28;;;4.63;;
35418;SDS011;21525;41.240;16.500;2023-06-14T12:22:56;7.32;;;4.45;;
35418;SDS011;21525;41.240;16.500;2023-06-14T12:25:30;9.13;;;4.50;;
35418;SDS011;21525;41.240;16.500;2023-06-14T12:27:57;9.00;;;4.88;;
35418;SDS011;21525;41.240;16.500;2023-06-14T12:30:24;7.93;;;5.10;;
35418;SDS011;21525;41.240;16.500;2023-06-14T12:32:49;7.55;;;4.90;;
35418;SDS011;21525;41.240;16.500;2023-06-14T12:35:17;13.20;;;5.30;;
35418;SDS011;21525;41.240;16.500;2023-06-14T12:37:44;10.85;;;5.10;;
35418;SDS011;21525;41.240;16.500;2023-06-14T12:40:11;7.55;;;4.85;;
35418;SDS011;21525;41.240;16.500;2023-06-14T12:42:37;8.93;;;5.25;;
35418;SDS011;21525;41.240;16.500;2023-06-14T12:45:03;10.68;;;5.70;;
35418;SDS011;21525;41.240;16.500;2023-06-14T12:47:29;17.70;;;6.20;;
35418;SDS011;21525;41.240;16.500;2023-06-14T12:49:55;9.02;;;5.53;;
35418;SDS011;21525;41.240;16.500;2023-06-14T12:52:23;10.88;;;5.97;;
35418;SDS011;21525;41.240;16.500;2023-06-14T12:54:49;11.25;;;6.53;;
35418;SDS011;21525;41.240;16.500;2023-06-14T12:57:15;12.52;;;6.15;;
35418;SDS011;21525;41.240;16.500;2023-06-14T12:59:41;10.60;;;6.10;;
35418;SDS011;21525;41.240;16.500;2023-06-14T13:02:10;12.70;;;6.20;;
35418;SDS011;21525;41.240;16.500;2023-06-14T13:04:36;10.07;;;5.85;;
35418;SDS011;21525;41.240;16.500;2023-06-14T13:07:02;13.77;;;7.20;;
35418;SDS011;21525;41.240;16.500;2023-06-14T13:09:28;10.75;;;6.10;;
35418;SDS011;21525;41.240;16.500;2023-06-14T13:11:53;13.10;;;6.30;;
35418;SDS011;21525;41.240;16.500;2023-06-14T13:14:19;11.40;;;5.57;;
35418;SDS011;21525;41.240;16.500;2023-06-14T13:16:45;10.75;;;5.47;;
35418;SDS011;21525;41.240;16.500;2023-06-14T13:19:11;11.13;;;5.10;;
35418;SDS011;21525;41.240;16.500;2023-06-14T13:21:37;14.13;;;6.28;;
35418;SDS011;21525;41.240;16.500;2023-06-14T13:24:03;13.77;;;6.22;;
35418;SDS011;21525;41.240;16.500;2023-06-14T13:26:30;12.40;;;5.63;;
35418;SDS011;21525;41.240;16.500;2023-06-14T13:28:55;15.35;;;6.65;;
35418;SDS011;21525;41.240;16.500;2023-06-14T13:31:22;14.77;;;5.13;;
35418;SDS011;21525;41.240;16.500;2023-06-14T13:33:48;22.80;;;6.38;;
35418;SDS011;21525;41.240;16.500;2023-06-14T13:36:14;17.55;;;4.43;;
35418;SDS011;21525;41.240;16.500;2023-06-14T13:38:40;22.95;;;5.85;;
35418;SDS011;21525;41.240;16.500;2023-06-14T13:41:06;16.35;;;4.40;;
35418;SDS011;21525;41.240;16.500;2023-06-14T13:43:31;16.92;;;5.22;;
35418;SDS011;21525;41.240;16.500;2023-06-14T13:45:57;11.25;;;4.18;;
35418;SDS011;21525;41.240;16.500;2023-06-14T13:48:23;12.32;;;4.53;;
35418;SDS011;21525;41.240;16.500;2023-06-14T13:50:49;14.50;;;4.43;;
35418;SDS011;21525;41.240;16.500;2023-06-14T13:53:14;12.32;;;4.18;;
35418;SDS011;21525;41.240;16.500;2023-06-14T13:55:40;10.95;;;3.75;;
35418;SDS011;21525;41.240;16.500;2023-06-14T13:58:06;5.15;;;2.70;;
35418;SDS011;21525;41.240;16.500;2023-06-14T14:00:31;3.63;;;2.08;;
35418;SDS011;21525;41.240;16.500;2023-06-14T14:02:57;3.47;;;2.10;;
35418;SDS011;21525;41.240;16.500;2023-06-14T14:05:25;4.57;;;3.38;;
35418;SDS011;21525;41.240;16.500;2023-06-14T14:07:55;6.53;;;3.30;;
35418;SDS011;21525;41.240;16.500;2023-06-14T14:10:22;5.95;;;2.60;;
35418;SDS011;21525;41.240;16.500;2023-06-14T14:12:50;10.25;;;5.93;;
35418;SDS011;21525;41.240;16.500;2023-06-14T14:15:16;7.15;;;3.00;;
35418;SDS011;21525;41.240;16.500;2023-06-14T14:17:42;8.10;;;4.32;;
35418;SDS011;21525;41.240;16.500;2023-06-14T14:20:08;7.88;;;3.20;;
35418;SDS011;21525;41.240;16.500;2023-06-14T14:25:02;8.18;;;3.90;;
35418;SDS011;21525;41.240;16.500;2023-06-14T14:27:28;7.18;;;3.33;;
35418;SDS011;21525;41.240;16.500;2023-06-14T14:29:54;8.60;;;3.78;;
35418;SDS011;21525;41.240;16.500;2023-06-14T14:32:20;7.53;;;3.22;;
35418;SDS011;21525;41.240;16.500;2023-06-14T14:34:45;6.40;;;3.00;;
35418;SDS011;21525;41.240;16.500;2023-06-14T14:37:11;5.85;;;2.83;;
35418;SDS011;21525;41.240;16.500;2023-06-14T14:39:38;6.00;;;2.70;;
35418;SDS011;21525;41.240;16.500;2023-06-14T14:42:04;8.02;;;3.17;;
35418;SDS011;21525;41.240;16.500;2023-06-14T14:44:30;7.32;;;3.30;;
35418;SDS011;21525;41.240;16.500;2023-06-14T14:46:56;8.88;;;3.10;;
35418;SDS011;21525;41.240;16.500;2023-06-14T14:49:22;8.13;;;3.53;;
35418;SDS011;21525;41.240;16.500;2023-06-14T14:51:48;5.30;;;3.42;;
35418;SDS011;21525;41.240;16.500;2023-06-14T14:54:13;7.18;;;4.45;;
35418;SDS011;21525;41.240;16.500;2023-06-14T14:56:39;6.70;;;3.35;;
35418;SDS011;21525;41.240;16.500;2023-06-14T14:59:05;7.47;;;3.85;;
35418;SDS011;21525;41.240;16.500;2023-06-14T15:01:31;8.35;;;3.72;;
35418;SDS011;21525;41.240;16.500;2023-06-14T15:03:56;8.18;;;3.50;;